createdAt,value
2018-04-17T00:00:21.628Z,914.30
2018-04-17T00:01:21.623Z,914.31
2018-04-17T00:02:21.571Z,914.35
2018-04-17T00:04:21.548Z,914.35
2018-04-17T00:05:21.503Z,914.37
2018-04-17T00:06:21.486Z,914.37
2018-04-17T00:07:21.477Z,914.35
2018-04-17T00:08:21.459Z,914.35
2018-04-17T00:09:21.442Z,914.39
2018-04-17T00:10:21.389Z,914.39
2018-04-17T00:11:21.375Z,914.43
2018-04-17T00:12:21.329Z,914.43
2018-04-17T00:13:21.299Z,914.45
2018-04-17T00:14:21.326Z,914.44
2018-04-17T00:15:21.287Z,914.46
2018-04-17T00:16:21.242Z,914.45
2018-04-17T00:17:21.222Z,914.38
2018-04-17T00:18:21.214Z,914.39
2018-04-17T00:19:21.176Z,914.36
2018-04-17T00:20:21.180Z,914.32
2018-04-17T00:21:21.116Z,914.34
2018-04-17T00:22:21.100Z,914.31
2018-04-17T00:23:21.111Z,914.35
2018-04-17T00:24:21.042Z,914.30
2018-04-17T00:25:21.031Z,914.36
2018-04-17T00:26:20.996Z,914.34
2018-04-17T00:27:20.984Z,914.31
2018-04-17T00:28:20.958Z,914.34
2018-04-17T00:29:20.936Z,914.33
2018-04-17T00:30:20.906Z,914.34
2018-04-17T00:31:20.896Z,914.35
2018-04-17T00:32:21.070Z,914.36
2018-04-17T00:33:20.862Z,914.37
2018-04-17T00:34:20.814Z,914.34
2018-04-17T00:35:20.843Z,914.38
2018-04-17T00:36:20.776Z,914.40
2018-04-17T00:37:20.747Z,914.35
2018-04-17T00:38:20.713Z,914.35
2018-04-17T00:39:20.681Z,914.34
2018-04-17T00:40:20.665Z,914.33
2018-04-17T00:41:20.634Z,914.34
2018-04-17T00:42:20.600Z,914.35
2018-04-17T00:43:20.594Z,914.32
2018-04-17T00:44:20.720Z,914.30
2018-04-17T00:45:20.565Z,914.32
2018-04-17T00:46:20.490Z,914.32
2018-04-17T00:47:20.483Z,914.37
2018-04-17T00:48:20.517Z,914.40
2018-04-17T00:49:20.523Z,914.38
2018-04-17T00:50:20.515Z,914.43
2018-04-17T00:51:20.393Z,914.46
2018-04-17T00:52:20.363Z,914.46
2018-04-17T00:53:20.356Z,914.53
2018-04-17T00:54:20.346Z,914.50
2018-04-17T00:55:20.286Z,914.54
2018-04-17T00:56:20.271Z,914.63
2018-04-17T00:57:20.245Z,914.60
2018-04-17T00:58:20.224Z,914.63
2018-04-17T00:59:20.178Z,914.62
2018-04-17T01:00:20.211Z,914.62
2018-04-17T01:01:20.133Z,914.66
2018-04-17T01:02:20.108Z,914.67
2018-04-17T01:03:20.117Z,914.67
2018-04-17T01:04:20.068Z,914.69
2018-04-17T01:05:20.060Z,914.68
2018-04-17T01:06:20.035Z,914.69
2018-04-17T01:07:19.998Z,914.70
2018-04-17T01:08:19.967Z,914.69
2018-04-17T01:09:19.983Z,914.69
2018-04-17T01:10:20.040Z,914.69
2018-04-17T01:11:19.909Z,914.66
2018-04-17T01:12:19.867Z,914.66
2018-04-17T01:13:19.861Z,914.69
2018-04-17T01:14:19.847Z,914.70
2018-04-17T01:15:19.799Z,914.74
2018-04-17T01:16:19.916Z,914.79
2018-04-17T01:17:19.772Z,914.80
2018-04-17T01:18:19.738Z,914.77
2018-04-17T01:19:19.755Z,914.79
2018-04-17T01:20:19.675Z,914.77
2018-04-17T01:21:19.644Z,914.77
2018-04-17T01:22:19.628Z,914.73
2018-04-17T01:23:19.616Z,914.75
2018-04-17T01:24:19.606Z,914.71
2018-04-17T01:25:19.580Z,914.72
2018-04-17T01:26:19.527Z,914.71
2018-04-17T01:27:19.510Z,914.73
2018-04-17T01:28:19.554Z,914.69
2018-04-17T01:29:19.471Z,914.70
2018-04-17T01:30:19.440Z,914.74
2018-04-17T01:31:19.412Z,914.75
2018-04-17T01:32:19.389Z,914.75
2018-04-17T01:33:19.373Z,914.73
2018-04-17T01:34:19.348Z,914.77
2018-04-17T01:35:19.315Z,914.71
2018-04-17T01:36:19.295Z,914.71
2018-04-17T01:37:19.269Z,914.72
2018-04-17T01:38:19.249Z,914.74
2018-04-17T01:39:19.237Z,914.73
2018-04-17T01:40:19.221Z,914.74
2018-04-17T01:41:19.181Z,914.75
2018-04-17T01:42:19.151Z,914.73
2018-04-17T01:43:19.123Z,914.74
2018-04-17T01:44:19.093Z,914.82
2018-04-17T01:45:19.056Z,914.79
2018-04-17T01:46:19.037Z,914.82
2018-04-17T01:47:19.032Z,914.85
2018-04-17T01:48:18.998Z,914.85
2018-04-17T01:49:18.972Z,914.83
2018-04-17T01:50:18.953Z,914.81
2018-04-17T01:51:18.941Z,914.82
2018-04-17T01:52:18.878Z,914.82
2018-04-17T01:54:18.846Z,914.87
2018-04-17T01:55:18.830Z,914.84
2018-04-17T01:56:18.822Z,914.86
2018-04-17T01:57:18.810Z,914.85
2018-04-17T01:58:18.741Z,914.87
2018-04-17T01:59:18.720Z,914.88
2018-04-17T02:00:18.696Z,914.89
2018-04-17T02:01:18.671Z,914.87
2018-04-17T02:02:18.645Z,914.90
2018-04-17T02:03:18.622Z,914.90
2018-04-17T02:04:18.618Z,914.93
2018-04-17T02:05:18.592Z,914.96
2018-04-17T02:06:18.549Z,914.97
2018-04-17T02:07:18.530Z,914.93
2018-04-17T02:08:18.514Z,914.92
2018-04-17T02:09:18.573Z,914.91
2018-04-17T02:10:18.462Z,914.88
2018-04-17T02:11:18.423Z,914.91
2018-04-17T02:12:18.412Z,914.91
2018-04-17T02:13:18.389Z,914.90
2018-04-17T02:14:18.359Z,914.92
2018-04-17T02:15:18.346Z,914.91
2018-04-17T02:16:18.314Z,914.94
2018-04-17T02:17:18.287Z,914.94
2018-04-17T02:18:18.267Z,914.95
2018-04-17T02:19:18.258Z,914.94
2018-04-17T02:20:18.212Z,914.95
2018-04-17T02:21:18.182Z,914.96
2018-04-17T02:22:18.173Z,915.00
2018-04-17T02:23:18.141Z,914.98
2018-04-17T02:24:18.113Z,915.01
2018-04-17T02:25:18.096Z,914.99
2018-04-17T02:26:18.081Z,914.96
2018-04-17T02:27:18.053Z,915.01
2018-04-17T02:28:18.031Z,915.01
2018-04-17T02:29:18.008Z,914.97
2018-04-17T02:30:18.115Z,914.95
2018-04-17T02:31:17.957Z,914.97
2018-04-17T02:32:17.920Z,914.95
2018-04-17T02:33:17.920Z,914.92
2018-04-17T02:34:17.852Z,914.92
2018-04-17T02:35:17.867Z,914.94
2018-04-17T02:36:18.508Z,914.93
2018-04-17T02:37:17.847Z,914.92
2018-04-17T02:38:17.770Z,914.91
2018-04-17T02:39:17.757Z,914.90
2018-04-17T02:40:17.709Z,914.89
2018-04-17T02:41:17.717Z,914.90
2018-04-17T02:42:17.673Z,914.88
2018-04-17T02:43:17.646Z,914.91
2018-04-17T02:44:17.612Z,914.91
2018-04-17T02:45:17.592Z,914.92
2018-04-17T02:46:17.565Z,914.92
2018-04-17T02:47:17.569Z,914.91
2018-04-17T02:48:17.515Z,914.92
2018-04-17T02:49:17.502Z,914.94
2018-04-17T02:50:17.821Z,914.90
2018-04-17T02:51:17.429Z,914.93
2018-04-17T02:52:17.406Z,914.98
2018-04-17T02:53:17.394Z,914.96
2018-04-17T02:54:17.371Z,914.92
2018-04-17T02:55:17.345Z,914.93
2018-04-17T02:56:17.312Z,914.97
2018-04-17T02:57:17.297Z,914.95
2018-04-17T02:58:17.248Z,914.96
2018-04-17T02:59:17.241Z,914.89
2018-04-17T03:00:17.209Z,914.88
2018-04-17T03:01:17.212Z,914.88
2018-04-17T03:02:17.181Z,914.93
2018-04-17T03:03:17.134Z,914.88
2018-04-17T03:04:17.137Z,914.89
2018-04-17T03:05:17.098Z,914.88
2018-04-17T03:06:17.077Z,914.89
2018-04-17T03:07:17.077Z,914.85
2018-04-17T03:08:17.027Z,914.84
2018-04-17T03:09:17.010Z,914.83
2018-04-17T03:10:16.971Z,914.80
2018-04-17T03:11:16.947Z,914.78
2018-04-17T03:12:16.912Z,914.78
2018-04-17T03:13:16.900Z,914.78
2018-04-17T03:14:16.857Z,914.76
2018-04-17T03:15:16.850Z,914.79
2018-04-17T03:16:16.875Z,914.77
2018-04-17T03:17:16.795Z,914.80
2018-04-17T03:18:16.773Z,914.74
2018-04-17T03:19:16.754Z,914.78
2018-04-17T03:20:16.710Z,914.82
2018-04-17T03:21:16.711Z,914.82
2018-04-17T03:22:16.660Z,914.89
2018-04-17T03:23:16.661Z,914.88
2018-04-17T03:24:16.777Z,914.88
2018-04-17T03:25:16.586Z,914.89
2018-04-17T03:26:16.596Z,914.87
2018-04-17T03:27:16.566Z,914.84
2018-04-17T03:28:16.507Z,914.84
2018-04-17T03:29:16.501Z,914.81
2018-04-17T03:30:16.482Z,914.80
2018-04-17T03:31:16.492Z,914.77
2018-04-17T03:32:16.411Z,914.75
2018-04-17T03:33:16.385Z,914.68
2018-04-17T03:34:16.368Z,914.64
2018-04-17T03:35:16.345Z,914.64
2018-04-17T03:36:16.356Z,914.64
2018-04-17T03:37:16.328Z,914.60
2018-04-17T03:38:16.280Z,914.63
2018-04-17T03:39:16.229Z,914.63
2018-04-17T03:40:16.229Z,914.64
2018-04-17T03:41:16.200Z,914.67
2018-04-17T03:42:16.185Z,914.63
2018-04-17T03:43:16.156Z,914.63
2018-04-17T03:44:16.135Z,914.66
2018-04-17T03:45:16.084Z,914.62
2018-04-17T03:46:16.078Z,914.60
2018-04-17T03:47:16.036Z,914.57
2018-04-17T03:48:16.028Z,914.59
2018-04-17T03:49:16.019Z,914.63
2018-04-17T03:50:16.015Z,914.66
2018-04-17T03:51:15.990Z,914.64
2018-04-17T03:52:15.910Z,914.62
2018-04-17T03:53:15.908Z,914.66
2018-04-17T03:54:15.869Z,914.63
2018-04-17T03:55:15.860Z,914.64
2018-04-17T03:56:15.812Z,914.66
2018-04-17T03:57:15.797Z,914.68
2018-04-17T03:58:15.763Z,914.60
2018-04-17T03:59:15.731Z,914.58
2018-04-17T04:00:15.732Z,914.55
2018-04-17T04:01:15.686Z,914.52
2018-04-17T04:02:15.676Z,914.49
2018-04-17T04:03:15.657Z,914.47
2018-04-17T04:04:15.620Z,914.41
2018-04-17T04:05:15.598Z,914.44
2018-04-17T04:06:15.563Z,914.43
2018-04-17T04:07:15.548Z,914.42
2018-04-17T04:08:15.527Z,914.39
2018-04-17T04:09:15.511Z,914.35
2018-04-17T04:10:15.459Z,914.36
2018-04-17T04:11:15.436Z,914.32
2018-04-17T04:12:15.428Z,914.34
2018-04-17T04:13:15.390Z,914.39
2018-04-17T04:14:15.376Z,914.42
2018-04-17T04:15:15.349Z,914.42
2018-04-17T04:16:15.366Z,914.45
2018-04-17T04:17:15.324Z,914.43
2018-04-17T04:18:15.266Z,914.45
2018-04-17T04:19:15.242Z,914.40
2018-04-17T04:20:15.224Z,914.42
2018-04-17T04:21:15.197Z,914.39
2018-04-17T04:22:15.162Z,914.34
2018-04-17T04:23:15.142Z,914.32
2018-04-17T04:24:15.127Z,914.29
2018-04-17T04:25:15.106Z,914.27
2018-04-17T04:26:15.060Z,914.29
2018-04-17T04:27:15.029Z,914.28
2018-04-17T04:28:15.024Z,914.29
2018-04-17T04:29:15.003Z,914.23
2018-04-17T04:30:14.976Z,914.24
2018-04-17T04:31:15.105Z,914.26
2018-04-17T04:32:14.927Z,914.20
2018-04-17T04:33:14.901Z,914.22
2018-04-17T04:34:14.862Z,914.25
2018-04-17T04:35:14.832Z,914.27
2018-04-17T04:36:14.810Z,914.24
2018-04-17T04:37:14.789Z,914.20
2018-04-17T04:38:14.763Z,914.18
2018-04-17T04:39:14.751Z,914.18
2018-04-17T04:40:14.716Z,914.19
2018-04-17T04:41:14.703Z,914.17
2018-04-17T04:42:14.671Z,914.14
2018-04-17T04:43:14.660Z,914.12
2018-04-17T04:44:14.602Z,914.13
2018-04-17T04:45:14.585Z,914.10
2018-04-17T04:46:14.581Z,914.10
2018-04-17T04:47:14.548Z,914.09
2018-04-17T04:48:14.828Z,914.09
2018-04-17T04:49:14.491Z,914.07
2018-04-17T04:50:14.454Z,914.08
2018-04-17T04:51:14.441Z,914.09
2018-04-17T04:52:14.408Z,914.03
2018-04-17T04:53:14.379Z,914.02
2018-04-17T04:54:14.376Z,914.01
2018-04-17T04:55:14.350Z,914.02
2018-04-17T04:56:14.328Z,914.02
2018-04-17T04:57:14.276Z,914.07
2018-04-17T04:58:14.271Z,914.08
2018-04-17T04:59:14.248Z,914.11
2018-04-17T05:00:14.218Z,914.10
2018-04-17T05:01:14.184Z,914.12
2018-04-17T05:02:14.159Z,914.14
2018-04-17T05:03:14.164Z,914.15
2018-04-17T05:04:14.131Z,914.18
2018-04-17T05:05:14.076Z,914.16
2018-04-17T05:06:14.082Z,914.17
2018-04-17T05:07:14.033Z,914.21
2018-04-17T05:08:14.018Z,914.19
2018-04-17T05:09:14.131Z,914.23
2018-04-17T05:10:13.990Z,914.18
2018-04-17T05:11:13.942Z,914.20
2018-04-17T05:12:13.921Z,914.19
2018-04-17T05:13:13.890Z,914.20
2018-04-17T05:14:13.860Z,914.18
2018-04-17T05:15:14.149Z,914.14
2018-04-17T05:16:13.804Z,914.15
2018-04-17T05:17:13.804Z,914.16
2018-04-17T05:18:13.762Z,914.12
2018-04-17T05:19:13.745Z,914.15
2018-04-17T05:20:13.730Z,914.10
2018-04-17T05:21:13.783Z,914.13
2018-04-17T05:22:13.674Z,914.11
2018-04-17T05:23:13.659Z,914.10
2018-04-17T05:24:13.621Z,914.08
2018-04-17T05:25:13.596Z,914.08
2018-04-17T05:26:13.567Z,914.08
2018-04-17T05:27:13.528Z,914.04
2018-04-17T05:28:13.518Z,914.04
2018-04-17T05:29:13.489Z,914.07
2018-04-17T05:30:13.473Z,914.06
2018-04-17T05:31:13.431Z,914.06
2018-04-17T05:32:13.411Z,914.03
2018-04-17T05:33:13.373Z,914.03
2018-04-17T05:34:13.394Z,914.03
2018-04-17T05:35:13.334Z,914.02
2018-04-17T05:36:13.295Z,914.02
2018-04-17T05:37:13.282Z,914.00
2018-04-17T05:38:13.244Z,913.94
2018-04-17T05:39:13.251Z,913.95
2018-04-17T05:40:13.247Z,913.89
2018-04-17T05:41:13.177Z,913.85
2018-04-17T05:42:13.164Z,913.82
2018-04-17T05:43:13.124Z,913.82
2018-04-17T05:44:13.114Z,913.85
2018-04-17T05:45:13.081Z,913.83
2018-04-17T05:46:13.054Z,913.82
2018-04-17T05:47:13.139Z,913.86
2018-04-17T05:48:12.996Z,913.83
2018-04-17T05:49:12.970Z,913.84
2018-04-17T05:50:12.986Z,913.85
2018-04-17T05:51:12.926Z,913.82
2018-04-17T05:52:12.898Z,913.82
2018-04-17T05:53:12.887Z,913.82
2018-04-17T05:54:12.844Z,913.83
2018-04-17T05:55:12.821Z,913.84
2018-04-17T05:56:12.820Z,913.83
2018-04-17T05:57:12.785Z,913.82
2018-04-17T05:58:12.769Z,913.84
2018-04-17T05:59:12.736Z,913.83
2018-04-17T06:00:12.715Z,913.82
2018-04-17T06:01:12.677Z,913.86
2018-04-17T06:02:12.650Z,913.85
2018-04-17T06:03:12.617Z,913.84
2018-04-17T06:04:12.720Z,913.85
2018-04-17T06:05:12.595Z,913.86
2018-04-17T06:06:12.554Z,913.86
2018-04-17T06:07:12.528Z,913.85
2018-04-17T06:08:12.510Z,913.85
2018-04-17T06:09:12.480Z,913.83
2018-04-17T06:10:12.454Z,913.82
2018-04-17T06:11:12.422Z,913.82
2018-04-17T06:12:12.400Z,913.77
2018-04-17T06:13:12.369Z,913.79
2018-04-17T06:14:12.358Z,913.75
2018-04-17T06:15:12.311Z,913.79
2018-04-17T06:16:12.309Z,913.76
2018-04-17T06:17:12.269Z,913.76
2018-04-17T06:18:12.229Z,913.78
2018-04-17T06:19:12.231Z,913.82
2018-04-17T06:20:12.199Z,913.82
2018-04-17T06:21:12.190Z,913.82
2018-04-17T06:22:12.159Z,913.84
2018-04-17T06:23:12.137Z,913.82
2018-04-17T06:24:12.081Z,913.83
2018-04-17T06:25:12.326Z,913.83
2018-04-17T06:26:12.054Z,913.85
2018-04-17T06:27:12.016Z,913.85
2018-04-17T06:28:12.003Z,913.87
2018-04-17T06:29:11.961Z,913.87
2018-04-17T06:30:11.938Z,913.85
2018-04-17T06:31:12.078Z,913.84
2018-04-17T06:32:11.890Z,913.82
2018-04-17T06:33:11.848Z,913.81
2018-04-17T06:34:11.848Z,913.81
2018-04-17T06:35:11.802Z,913.79
2018-04-17T06:36:11.798Z,913.76
2018-04-17T06:37:11.767Z,913.74
2018-04-17T06:38:11.730Z,913.63
2018-04-17T06:39:11.725Z,913.67
2018-04-17T06:40:11.693Z,913.65
2018-04-17T06:41:11.649Z,913.61
2018-04-17T06:42:11.898Z,913.67
2018-04-17T06:43:11.622Z,913.63
2018-04-17T06:44:11.577Z,913.61
2018-04-17T06:45:11.580Z,913.61
2018-04-17T06:46:11.540Z,913.61
2018-04-17T06:47:11.522Z,913.63
2018-04-17T06:48:11.502Z,913.65
2018-04-17T06:49:11.447Z,913.68
2018-04-17T06:50:11.448Z,913.67
2018-04-17T06:51:11.396Z,913.68
2018-04-17T06:52:11.377Z,913.68
2018-04-17T06:53:11.352Z,913.67
2018-04-17T06:54:11.337Z,913.67
2018-04-17T06:55:11.329Z,913.67
2018-04-17T06:56:11.276Z,913.65
2018-04-17T06:57:11.275Z,913.65
2018-04-17T06:58:11.250Z,913.61
2018-04-17T06:59:11.193Z,913.66
2018-04-17T07:00:11.173Z,913.64
2018-04-17T07:01:11.142Z,913.62
2018-04-17T07:02:11.141Z,913.67
2018-04-17T07:03:11.399Z,913.65
2018-04-17T07:04:11.098Z,913.67
2018-04-17T07:05:11.110Z,913.63
2018-04-17T07:06:11.028Z,913.65
2018-04-17T07:07:11.008Z,913.65
2018-04-17T07:08:10.983Z,913.68
2018-04-17T07:09:11.165Z,913.68
2018-04-17T07:10:10.933Z,913.68
2018-04-17T07:11:10.896Z,913.67
2018-04-17T07:12:10.868Z,913.63
2018-04-17T07:13:10.854Z,913.65
2018-04-17T07:14:10.820Z,913.62
2018-04-17T07:15:11.089Z,913.62
2018-04-17T07:16:10.763Z,913.63
2018-04-17T07:17:10.736Z,913.64
2018-04-17T07:18:10.718Z,913.62
2018-04-17T07:19:10.902Z,913.61
2018-04-17T07:20:10.684Z,913.69
2018-04-17T07:21:10.672Z,913.66
2018-04-17T07:22:10.661Z,913.66
2018-04-17T07:23:10.596Z,913.64
2018-04-17T07:24:10.573Z,913.64
2018-04-17T07:25:10.555Z,913.64
2018-04-17T07:26:10.508Z,913.63
2018-04-17T07:27:10.496Z,913.63
2018-04-17T07:28:10.491Z,913.65
2018-04-17T07:29:10.426Z,913.64
2018-04-17T07:30:10.441Z,913.65
2018-04-17T07:31:10.384Z,913.66
2018-04-17T07:32:10.373Z,913.66
2018-04-17T07:33:10.325Z,913.66
2018-04-17T07:34:10.322Z,913.64
2018-04-17T07:35:10.289Z,913.69
2018-04-17T07:36:10.258Z,913.68
2018-04-17T07:37:10.229Z,913.68
2018-04-17T07:38:10.197Z,913.68
2018-04-17T07:39:10.184Z,913.64
2018-04-17T07:40:10.163Z,913.66
2018-04-17T07:41:10.142Z,913.66
2018-04-17T07:42:10.103Z,913.69
2018-04-17T07:43:10.097Z,913.67
2018-04-17T07:44:10.058Z,913.69
2018-04-17T07:45:10.044Z,913.71
2018-04-17T07:46:10.108Z,913.70
2018-04-17T07:47:10.000Z,913.73
2018-04-17T07:48:09.963Z,913.72
2018-04-17T07:49:09.924Z,913.71
2018-04-17T07:50:09.916Z,913.69
2018-04-17T07:51:09.879Z,913.72
2018-04-17T07:52:09.869Z,913.70
2018-04-17T07:53:09.842Z,913.74
2018-04-17T07:54:09.816Z,913.73
2018-04-17T07:55:09.791Z,913.73
2018-04-17T07:56:09.759Z,913.71
2018-04-17T07:57:09.733Z,913.74
2018-04-17T07:58:09.719Z,913.75
2018-04-17T07:59:09.679Z,913.73
2018-04-17T08:00:09.657Z,913.74
2018-04-17T08:01:09.658Z,913.72
2018-04-17T08:02:09.648Z,913.75
2018-04-17T08:03:09.565Z,913.75
2018-04-17T08:04:09.547Z,913.76
2018-04-17T08:05:09.530Z,913.76
2018-04-17T08:06:09.506Z,913.75
2018-04-17T08:07:09.482Z,913.76
2018-04-17T08:08:09.453Z,913.76
2018-04-17T08:09:09.447Z,913.78
2018-04-17T08:10:09.402Z,913.75
2018-04-17T08:11:09.367Z,913.75
2018-04-17T08:12:09.361Z,913.76
2018-04-17T08:13:09.505Z,913.76
2018-04-17T08:14:09.403Z,913.72
2018-04-17T08:15:09.277Z,913.79
2018-04-17T08:16:09.260Z,913.78
2018-04-17T08:17:09.214Z,913.79
2018-04-17T08:18:09.180Z,913.77
2018-04-17T08:19:09.148Z,913.76
2018-04-17T08:20:09.158Z,913.89
2018-04-17T08:21:09.107Z,913.86
2018-04-17T08:22:09.104Z,913.91
2018-04-17T08:23:09.077Z,913.92
2018-04-17T08:24:09.296Z,913.95
2018-04-17T08:25:09.096Z,913.91
2018-04-17T08:26:09.004Z,913.98
2018-04-17T08:27:08.965Z,913.95
2018-04-17T08:28:08.933Z,913.97
2018-04-17T08:29:09.132Z,914.02
2018-04-17T08:30:08.882Z,914.01
2018-04-17T08:31:08.869Z,914.03
2018-04-17T08:32:08.842Z,914.03
2018-04-17T08:33:08.935Z,914.03
2018-04-17T08:34:08.915Z,914.05
2018-04-17T08:35:08.740Z,914.05
2018-04-17T08:36:08.787Z,914.03
2018-04-17T08:37:08.721Z,914.06
2018-04-17T08:38:08.686Z,914.08
2018-04-17T08:39:08.659Z,914.12
2018-04-17T08:40:08.624Z,914.13
2018-04-17T08:41:08.759Z,914.15
2018-04-17T08:42:08.600Z,914.14
2018-04-17T08:43:08.558Z,914.16
2018-04-17T08:44:08.513Z,914.17
2018-04-17T08:45:08.487Z,914.20
2018-04-17T08:46:08.465Z,914.22
2018-04-17T08:47:08.449Z,914.23
2018-04-17T08:48:08.416Z,914.26
2018-04-17T08:49:08.409Z,914.25
2018-04-17T08:50:08.376Z,914.27
2018-04-17T08:51:08.365Z,914.24
2018-04-17T08:52:08.304Z,914.28
2018-04-17T08:53:08.295Z,914.27
2018-04-17T08:54:08.268Z,914.30
2018-04-17T08:55:08.239Z,914.29
2018-04-17T08:56:08.217Z,914.33
2018-04-17T08:57:08.194Z,914.27
2018-04-17T08:58:08.170Z,914.29
2018-04-17T08:59:08.133Z,914.31
2018-04-17T09:00:08.110Z,914.32
2018-04-17T09:01:08.068Z,914.36
2018-04-17T09:02:08.208Z,914.35
2018-04-17T09:03:08.040Z,914.37
2018-04-17T09:04:08.006Z,914.37
2018-04-17T09:05:07.995Z,914.35
2018-04-17T09:06:07.940Z,914.33
2018-04-17T09:07:07.923Z,914.37
2018-04-17T09:08:08.056Z,914.39
2018-04-17T09:09:07.876Z,914.41
2018-04-17T09:10:07.860Z,914.42
2018-04-17T09:11:07.838Z,914.43
2018-04-17T09:12:07.806Z,914.42
2018-04-17T09:13:07.773Z,914.45
2018-04-17T09:14:07.755Z,914.47
2018-04-17T09:15:07.744Z,914.48
2018-04-17T09:16:07.708Z,914.45
2018-04-17T09:17:07.705Z,914.50
2018-04-17T09:18:07.659Z,914.53
2018-04-17T09:19:07.633Z,914.52
2018-04-17T09:20:07.601Z,914.52
2018-04-17T09:21:07.559Z,914.47
2018-04-17T09:22:07.547Z,914.50
2018-04-17T09:23:07.513Z,914.49
2018-04-17T09:24:07.503Z,914.53
2018-04-17T09:25:07.458Z,914.53
